sensor_id;sensor_type;location;lat;lon;timestamp;P1;durP1;ratioP1;P2;durP2;ratioP2
10403;SDS011;5248;47.374;8.486;2022-12-13T00:01:13;21.97;;;16.90;;
10403;SDS011;5248;47.374;8.486;2022-12-13T00:03:41;19.93;;;16.07;;
10403;SDS011;5248;47.374;8.486;2022-12-13T00:06:08;19.73;;;15.63;;
10403;SDS011;5248;47.374;8.486;2022-12-13T00:08:37;23.63;;;16.67;;
10403;SDS011;5248;47.374;8.486;2022-12-13T00:11:06;20.93;;;16.17;;
10403;SDS011;5248;47.374;8.486;2022-12-13T00:13:33;22.57;;;16.17;;
10403;SDS011;5248;47.374;8.486;2022-12-13T00:16:01;22.43;;;16.60;;
10403;SDS011;5248;47.374;8.486;2022-12-13T00:18:29;20.10;;;15.20;;
10403;SDS011;5248;47.374;8.486;2022-12-13T00:20:56;19.43;;;16.20;;
10403;SDS011;5248;47.374;8.486;2022-12-13T00:23:23;19.50;;;15.63;;
10403;SDS011;5248;47.374;8.486;2022-12-13T00:25:51;18.50;;;15.93;;
10403;SDS011;5248;47.374;8.486;2022-12-13T00:28:17;19.67;;;15.77;;
10403;SDS011;5248;47.374;8.486;2022-12-13T00:30:44;19.53;;;15.57;;
10403;SDS011;5248;47.374;8.486;2022-12-13T00:33:10;19.00;;;14.80;;
10403;SDS011;5248;47.374;8.486;2022-12-13T00:35:38;18.93;;;15.43;;
10403;SDS011;5248;47.374;8.486;2022-12-13T00:38:05;18.70;;;15.47;;
10403;SDS011;5248;47.374;8.486;2022-12-13T00:40:31;17.87;;;14.87;;
10403;SDS011;5248;47.374;8.486;2022-12-13T00:42:59;20.70;;;16.10;;
10403;SDS011;5248;47.374;8.486;2022-12-13T00:45:26;21.23;;;15.87;;
10403;SDS011;5248;47.374;8.486;2022-12-13T00:47:53;18.70;;;15.10;;
10403;SDS011;5248;47.374;8.486;2022-12-13T00:50:19;20.00;;;15.37;;
10403;SDS011;5248;47.374;8.486;2022-12-13T00:52:46;16.73;;;14.17;;
10403;SDS011;5248;47.374;8.486;2022-12-13T00:55:12;19.57;;;15.77;;
10403;SDS011;5248;47.374;8.486;2022-12-13T00:57:39;17.97;;;15.30;;
10403;SDS011;5248;47.374;8.486;2022-12-13T01:00:07;20.07;;;13.80;;
10403;SDS011;5248;47.374;8.486;2022-12-13T01:02:35;19.47;;;13.97;;
10403;SDS011;5248;47.374;8.486;2022-12-13T01:05:01;19.00;;;14.53;;
10403;SDS011;5248;47.374;8.486;2022-12-13T01:07:28;18.63;;;14.50;;
10403;SDS011;5248;47.374;8.486;2022-12-13T01:09:56;17.53;;;14.67;;
10403;SDS011;5248;47.374;8.486;2022-12-13T01:12:22;19.10;;;14.47;;
10403;SDS011;5248;47.374;8.486;2022-12-13T01:14:49;16.70;;;14.83;;
10403;SDS011;5248;47.374;8.486;2022-12-13T01:17:17;18.40;;;14.40;;
10403;SDS011;5248;47.374;8.486;2022-12-13T01:19:43;17.77;;;13.57;;
10403;SDS011;5248;47.374;8.486;2022-12-13T01:22:10;15.70;;;13.87;;
10403;SDS011;5248;47.374;8.486;2022-12-13T01:24:36;16.80;;;13.60;;
10403;SDS011;5248;47.374;8.486;2022-12-13T01:27:03;17.33;;;13.67;;
10403;SDS011;5248;47.374;8.486;2022-12-13T01:29:30;15.50;;;12.90;;
10403;SDS011;5248;47.374;8.486;2022-12-13T01:31:56;16.33;;;13.30;;
10403;SDS011;5248;47.374;8.486;2022-12-13T01:34:24;20.00;;;13.70;;
10403;SDS011;5248;47.374;8.486;2022-12-13T01:36:51;15.80;;;13.33;;
10403;SDS011;5248;47.374;8.486;2022-12-13T01:39:18;17.13;;;13.57;;
10403;SDS011;5248;47.374;8.486;2022-12-13T01:41:46;17.00;;;14.07;;
10403;SDS011;5248;47.374;8.486;2022-12-13T01:47:35;14.87;;;12.30;;
10403;SDS011;5248;47.374;8.486;2022-12-13T01:50:06;15.60;;;13.40;;
10403;SDS011;5248;47.374;8.486;2022-12-13T01:52:35;16.83;;;13.73;;
10403;SDS011;5248;47.374;8.486;2022-12-13T01:55:03;15.73;;;12.90;;
10403;SDS011;5248;47.374;8.486;2022-12-13T01:57:32;17.37;;;13.30;;
10403;SDS011;5248;47.374;8.486;2022-12-13T02:00:02;19.27;;;13.97;;
10403;SDS011;5248;47.374;8.486;2022-12-13T02:02:29;16.43;;;13.63;;
10403;SDS011;5248;47.374;8.486;2022-12-13T02:04:57;16.43;;;13.57;;
10403;SDS011;5248;47.374;8.486;2022-12-13T02:07:31;14.37;;;12.33;;
10403;SDS011;5248;47.374;8.486;2022-12-13T02:10:00;16.30;;;13.30;;
10403;SDS011;5248;47.374;8.486;2022-12-13T02:12:29;16.17;;;13.43;;
10403;SDS011;5248;47.374;8.486;2022-12-13T02:14:57;15.80;;;12.57;;
10403;SDS011;5248;47.374;8.486;2022-12-13T02:17:26;16.23;;;12.33;;
10403;SDS011;5248;47.374;8.486;2022-12-13T02:23:11;16.97;;;12.67;;
10403;SDS011;5248;47.374;8.486;2022-12-13T02:28:37;14.97;;;12.87;;
10403;SDS011;5248;47.374;8.486;2022-12-13T02:31:14;15.87;;;12.97;;
10403;SDS011;5248;47.374;8.486;2022-12-13T02:33:45;15.87;;;12.80;;
10403;SDS011;5248;47.374;8.486;2022-12-13T02:36:16;14.47;;;12.07;;
10403;SDS011;5248;47.374;8.486;2022-12-13T02:38:47;14.33;;;12.83;;
10403;SDS011;5248;47.374;8.486;2022-12-13T02:41:18;14.67;;;12.50;;
10403;SDS011;5248;47.374;8.486;2022-12-13T02:43:49;14.23;;;12.53;;
10403;SDS011;5248;47.374;8.486;2022-12-13T02:46:21;12.57;;;11.27;;
10403;SDS011;5248;47.374;8.486;2022-12-13T02:48:48;15.17;;;11.57;;
10403;SDS011;5248;47.374;8.486;2022-12-13T02:51:17;16.00;;;12.63;;
10403;SDS011;5248;47.374;8.486;2022-12-13T02:53:43;15.97;;;12.73;;
10403;SDS011;5248;47.374;8.486;2022-12-13T02:56:11;16.00;;;12.47;;
10403;SDS011;5248;47.374;8.486;2022-12-13T02:58:39;16.13;;;12.93;;
10403;SDS011;5248;47.374;8.486;2022-12-13T03:01:12;15.73;;;12.47;;
10403;SDS011;5248;47.374;8.486;2022-12-13T03:03:49;12.90;;;11.40;;
10403;SDS011;5248;47.374;8.486;2022-12-13T03:06:22;14.13;;;12.07;;
10403;SDS011;5248;47.374;8.486;2022-12-13T03:08:55;14.77;;;12.17;;
10403;SDS011;5248;47.374;8.486;2022-12-13T03:11:31;15.03;;;12.37;;
10403;SDS011;5248;47.374;8.486;2022-12-13T03:14:21;14.30;;;11.70;;
10403;SDS011;5248;47.374;8.486;2022-12-13T03:16:49;13.50;;;11.73;;
10403;SDS011;5248;47.374;8.486;2022-12-13T03:19:18;16.93;;;12.73;;
10403;SDS011;5248;47.374;8.486;2022-12-13T03:21:45;14.70;;;12.87;;
10403;SDS011;5248;47.374;8.486;2022-12-13T03:24:15;13.87;;;11.93;;
10403;SDS011;5248;47.374;8.486;2022-12-13T03:26:42;14.73;;;12.43;;
10403;SDS011;5248;47.374;8.486;2022-12-13T03:29:09;15.70;;;12.20;;
10403;SDS011;5248;47.374;8.486;2022-12-13T03:31:35;13.87;;;12.10;;
10403;SDS011;5248;47.374;8.486;2022-12-13T03:34:02;13.23;;;11.63;;
10403;SDS011;5248;47.374;8.486;2022-12-13T03:36:30;15.00;;;12.13;;
10403;SDS011;5248;47.374;8.486;2022-12-13T03:38:56;15.87;;;13.17;;
10403;SDS011;5248;47.374;8.486;2022-12-13T03:41:23;16.93;;;12.30;;
10403;SDS011;5248;47.374;8.486;2022-12-13T03:43:55;17.93;;;12.20;;
10403;SDS011;5248;47.374;8.486;2022-12-13T03:46:22;15.33;;;12.00;;
10403;SDS011;5248;47.374;8.486;2022-12-13T03:48:48;13.43;;;11.43;;
10403;SDS011;5248;47.374;8.486;2022-12-13T03:51:15;14.20;;;11.67;;
10403;SDS011;5248;47.374;8.486;2022-12-13T03:53:42;15.10;;;11.67;;
10403;SDS011;5248;47.374;8.486;2022-12-13T03:56:09;13.37;;;11.67;;
10403;SDS011;5248;47.374;8.486;2022-12-13T03:58:36;13.03;;;11.47;;
10403;SDS011;5248;47.374;8.486;2022-12-13T04:01:03;14.90;;;11.43;;
10403;SDS011;5248;47.374;8.486;2022-12-13T04:03:30;12.37;;;11.03;;
10403;SDS011;5248;47.374;8.486;2022-12-13T04:05:57;14.33;;;11.93;;
10403;SDS011;5248;47.374;8.486;2022-12-13T04:08:23;13.53;;;11.67;;
10403;SDS011;5248;47.374;8.486;2022-12-13T04:10:51;17.33;;;11.60;;
10403;SDS011;5248;47.374;8.486;2022-12-13T04:13:18;12.50;;;10.83;;
10403;SDS011;5248;47.374;8.486;2022-12-13T04:15:58;13.80;;;11.30;;
10403;SDS011;5248;47.374;8.486;2022-12-13T04:18:25;13.67;;;11.33;;
10403;SDS011;5248;47.374;8.486;2022-12-13T04:20:52;13.83;;;11.53;;
10403;SDS011;5248;47.374;8.486;2022-12-13T04:23:18;14.20;;;11.80;;
10403;SDS011;5248;47.374;8.486;2022-12-13T04:25:45;15.30;;;11.77;;
10403;SDS011;5248;47.374;8.486;2022-12-13T04:28:13;12.10;;;10.77;;
10403;SDS011;5248;47.374;8.486;2022-12-13T04:30:39;16.53;;;11.17;;
10403;SDS011;5248;47.374;8.486;2022-12-13T04:33:06;13.90;;;11.23;;
10403;SDS011;5248;47.374;8.486;2022-12-13T04:35:33;13.50;;;10.90;;
10403;SDS011;5248;47.374;8.486;2022-12-13T04:37:59;16.10;;;11.17;;
10403;SDS011;5248;47.374;8.486;2022-12-13T04:40:26;13.77;;;11.30;;
10403;SDS011;5248;47.374;8.486;2022-12-13T04:42:53;13.50;;;11.13;;
10403;SDS011;5248;47.374;8.486;2022-12-13T04:45:21;15.37;;;11.37;;
10403;SDS011;5248;47.374;8.486;2022-12-13T04:47:47;15.17;;;11.53;;
10403;SDS011;5248;47.374;8.486;2022-12-13T04:50:14;15.13;;;10.93;;
10403;SDS011;5248;47.374;8.486;2022-12-13T04:52:41;13.40;;;11.30;;
10403;SDS011;5248;47.374;8.486;2022-12-13T04:55:08;13.83;;;11.33;;
10403;SDS011;5248;47.374;8.486;2022-12-13T04:57:35;13.33;;;11.03;;
10403;SDS011;5248;47.374;8.486;2022-12-13T05:00:02;13.73;;;11.17;;
10403;SDS011;5248;47.374;8.486;2022-12-13T05:02:30;13.90;;;11.47;;
10403;SDS011;5248;47.374;8.486;2022-12-13T05:04:57;13.27;;;11.07;;
10403;SDS011;5248;47.374;8.486;2022-12-13T05:07:24;14.27;;;11.17;;
10403;SDS011;5248;47.374;8.486;2022-12-13T05:09:50;13.80;;;11.07;;
10403;SDS011;5248;47.374;8.486;2022-12-13T05:12:17;13.63;;;10.80;;
10403;SDS011;5248;47.374;8.486;2022-12-13T05:14:44;12.60;;;10.63;;
10403;SDS011;5248;47.374;8.486;2022-12-13T05:17:10;14.63;;;11.10;;
10403;SDS011;5248;47.374;8.486;2022-12-13T05:19:38;17.63;;;11.93;;
10403;SDS011;5248;47.374;8.486;2022-12-13T05:22:04;12.37;;;11.07;;
10403;SDS011;5248;47.374;8.486;2022-12-13T05:24:39;13.83;;;11.37;;
10403;SDS011;5248;47.374;8.486;2022-12-13T05:27:06;14.67;;;11.87;;
10403;SDS011;5248;47.374;8.486;2022-12-13T05:29:33;13.07;;;10.47;;
10403;SDS011;5248;47.374;8.486;2022-12-13T05:32:01;12.90;;;10.70;;
10403;SDS011;5248;47.374;8.486;2022-12-13T05:34:28;12.80;;;10.40;;
10403;SDS011;5248;47.374;8.486;2022-12-13T05:36:56;12.73;;;10.67;;
10403;SDS011;5248;47.374;8.486;2022-12-13T05:39:22;13.67;;;11.47;;
10403;SDS011;5248;47.374;8.486;2022-12-13T05:41:48;11.57;;;9.77;;
10403;SDS011;5248;47.374;8.486;2022-12-13T05:44:15;13.90;;;10.83;;
10403;SDS011;5248;47.374;8.486;2022-12-13T05:46:42;12.97;;;10.73;;
10403;SDS011;5248;47.374;8.486;2022-12-13T05:49:08;12.80;;;10.57;;
10403;SDS011;5248;47.374;8.486;2022-12-13T05:51:35;15.60;;;10.33;;
10403;SDS011;5248;47.374;8.486;2022-12-13T05:54:03;12.43;;;10.60;;
10403;SDS011;5248;47.374;8.486;2022-12-13T05:56:29;15.20;;;10.60;;
10403;SDS011;5248;47.374;8.486;2022-12-13T05:58:56;13.73;;;11.33;;
10403;SDS011;5248;47.374;8.486;2022-12-13T06:01:22;12.13;;;10.23;;
10403;SDS011;5248;47.374;8.486;2022-12-13T06:03:49;14.97;;;11.40;;
10403;SDS011;5248;47.374;8.486;2022-12-13T06:06:16;12.90;;;10.30;;
10403;SDS011;5248;47.374;8.486;2022-12-13T06:08:43;15.80;;;10.77;;
10403;SDS011;5248;47.374;8.486;2022-12-13T06:11:10;13.20;;;10.37;;
10403;SDS011;5248;47.374;8.486;2022-12-13T06:13:38;13.33;;;10.80;;
10403;SDS011;5248;47.374;8.486;2022-12-13T06:16:05;14.57;;;11.33;;
10403;SDS011;5248;47.374;8.486;2022-12-13T06:18:33;12.83;;;10.30;;
10403;SDS011;5248;47.374;8.486;2022-12-13T06:21:00;13.30;;;10.63;;
10403;SDS011;5248;47.374;8.486;2022-12-13T06:23:28;13.67;;;10.73;;
10403;SDS011;5248;47.374;8.486;2022-12-13T06:25:56;13.47;;;10.17;;
10403;SDS011;5248;47.374;8.486;2022-12-13T06:28:25;13.97;;;11.20;;
10403;SDS011;5248;47.374;8.486;2022-12-13T06:30:52;12.13;;;10.53;;
10403;SDS011;5248;47.374;8.486;2022-12-13T06:33:19;12.27;;;9.93;;
10403;SDS011;5248;47.374;8.486;2022-12-13T06:35:45;14.57;;;10.63;;
10403;SDS011;5248;47.374;8.486;2022-12-13T06:38:12;13.23;;;10.67;;
10403;SDS011;5248;47.374;8.486;2022-12-13T06:40:38;13.77;;;11.07;;
10403;SDS011;5248;47.374;8.486;2022-12-13T06:43:05;12.30;;;9.90;;
10403;SDS011;5248;47.374;8.486;2022-12-13T06:45:33;15.30;;;10.40;;
10403;SDS011;5248;47.374;8.486;2022-12-13T06:47:59;11.63;;;10.07;;
10403;SDS011;5248;47.374;8.486;2022-12-13T06:50:26;15.23;;;11.13;;
10403;SDS011;5248;47.374;8.486;2022-12-13T06:52:52;14.23;;;11.27;;
10403;SDS011;5248;47.374;8.486;2022-12-13T06:55:19;13.30;;;10.83;;
10403;SDS011;5248;47.374;8.486;2022-12-13T06:57:45;12.77;;;10.50;;
10403;SDS011;5248;47.374;8.486;2022-12-13T07:00:12;12.17;;;10.00;;
10403;SDS011;5248;47.374;8.486;2022-12-13T07:02:41;12.63;;;11.10;;
10403;SDS011;5248;47.374;8.486;2022-12-13T07:05:08;12.80;;;10.73;;
10403;SDS011;5248;47.374;8.486;2022-12-13T07:07:35;13.20;;;9.80;;
10403;SDS011;5248;47.374;8.486;2022-12-13T07:10:01;13.90;;;10.27;;
10403;SDS011;5248;47.374;8.486;2022-12-13T07:12:28;13.47;;;10.70;;
10403;SDS011;5248;47.374;8.486;2022-12-13T07:14:55;12.87;;;10.97;;
10403;SDS011;5248;47.374;8.486;2022-12-13T07:17:21;13.03;;;10.03;;
10403;SDS011;5248;47.374;8.486;2022-12-13T07:19:49;14.03;;;11.03;;
10403;SDS011;5248;47.374;8.486;2022-12-13T07:22:15;11.83;;;10.00;;
10403;SDS011;5248;47.374;8.486;2022-12-13T07:24:42;13.33;;;10.20;;
10403;SDS011;5248;47.374;8.486;2022-12-13T07:27:08;15.67;;;10.77;;
10403;SDS011;5248;47.374;8.486;2022-12-13T07:29:35;14.87;;;10.20;;
10403;SDS011;5248;47.374;8.486;2022-12-13T07:32:02;11.50;;;9.63;;
10403;SDS011;5248;47.374;8.486;2022-12-13T07:34:29;15.60;;;11.20;;
10403;SDS011;5248;47.374;8.486;2022-12-13T07:36:56;11.60;;;10.40;;
10403;SDS011;5248;47.374;8.486;2022-12-13T07:39:23;13.30;;;10.50;;
10403;SDS011;5248;47.374;8.486;2022-12-13T07:41:52;22.53;;;11.43;;
10403;SDS011;5248;47.374;8.486;2022-12-13T07:44:18;20.27;;;11.00;;
10403;SDS011;5248;47.374;8.486;2022-12-13T07:46:45;16.67;;;10.47;;
10403;SDS011;5248;47.374;8.486;2022-12-13T07:49:12;16.27;;;11.23;;
10403;SDS011;5248;47.374;8.486;2022-12-13T07:51:38;11.83;;;10.07;;
10403;SDS011;5248;47.374;8.486;2022-12-13T07:54:06;16.90;;;10.00;;
10403;SDS011;5248;47.374;8.486;2022-12-13T07:56:33;19.73;;;10.47;;
10403;SDS011;5248;47.374;8.486;2022-12-13T07:58:59;12.07;;;9.77;;
10403;SDS011;5248;47.374;8.486;2022-12-13T08:01:26;12.60;;;9.77;;
10403;SDS011;5248;47.374;8.486;2022-12-13T08:03:53;11.87;;;9.10;;
10403;SDS011;5248;47.374;8.486;2022-12-13T08:06:20;13.53;;;10.87;;
10403;SDS011;5248;47.374;8.486;2022-12-13T08:08:46;16.50;;;10.37;;
10403;SDS011;5248;47.374;8.486;2022-12-13T08:11:16;24.70;;;10.73;;
10403;SDS011;5248;47.374;8.486;2022-12-13T08:13:42;17.73;;;11.57;;
10403;SDS011;5248;47.374;8.486;2022-12-13T08:16:10;15.60;;;9.63;;
10403;SDS011;5248;47.374;8.486;2022-12-13T08:18:38;11.20;;;9.57;;
10403;SDS011;5248;47.374;8.486;2022-12-13T08:21:05;14.13;;;10.30;;
10403;SDS011;5248;47.374;8.486;2022-12-13T08:23:33;18.27;;;10.17;;
10403;SDS011;5248;47.374;8.486;2022-12-13T08:26:00;11.43;;;9.27;;
10403;SDS011;5248;47.374;8.486;2022-12-13T08:28:29;12.77;;;9.80;;
10403;SDS011;5248;47.374;8.486;2022-12-13T08:31:01;13.83;;;10.27;;
10403;SDS011;5248;47.374;8.486;2022-12-13T08:33:28;13.30;;;10.57;;
10403;SDS011;5248;47.374;8.486;2022-12-13T08:35:55;12.57;;;10.23;;
10403;SDS011;5248;47.374;8.486;2022-12-13T08:38:21;11.83;;;9.83;;
10403;SDS011;5248;47.374;8.486;2022-12-13T08:40:48;14.23;;;9.70;;
10403;SDS011;5248;47.374;8.486;2022-12-13T08:43:14;12.57;;;9.70;;
10403;SDS011;5248;47.374;8.486;2022-12-13T08:45:42;14.20;;;10.07;;
10403;SDS011;5248;47.374;8.486;2022-12-13T08:48:08;13.10;;;9.50;;
10403;SDS011;5248;47.374;8.486;2022-12-13T08:50:35;15.47;;;9.97;;
10403;SDS011;5248;47.374;8.486;2022-12-13T08:53:02;12.33;;;9.53;;
10403;SDS011;5248;47.374;8.486;2022-12-13T08:55:28;12.87;;;9.90;;
10403;SDS011;5248;47.374;8.486;2022-12-13T08:57:54;14.03;;;10.17;;
10403;SDS011;5248;47.374;8.486;2022-12-13T09:00:21;11.83;;;9.67;;
10403;SDS011;5248;47.374;8.486;2022-12-13T09:02:49;12.17;;;10.17;;
10403;SDS011;5248;47.374;8.486;2022-12-13T09:05:16;11.93;;;10.37;;
10403;SDS011;5248;47.374;8.486;2022-12-13T09:07:42;13.83;;;10.83;;
10403;SDS011;5248;47.374;8.486;2022-12-13T09:10:09;11.73;;;9.73;;
10403;SDS011;5248;47.374;8.486;2022-12-13T09:12:39;11.20;;;9.87;;
10403;SDS011;5248;47.374;8.486;2022-12-13T09:15:06;12.10;;;9.87;;
10403;SDS011;5248;47.374;8.486;2022-12-13T09:17:33;12.60;;;10.47;;
10403;SDS011;5248;47.374;8.486;2022-12-13T09:20:01;13.33;;;10.20;;
10403;SDS011;5248;47.374;8.486;2022-12-13T09:22:27;12.20;;;9.43;;
10403;SDS011;5248;47.374;8.486;2022-12-13T09:24:54;13.23;;;9.63;;
10403;SDS011;5248;47.374;8.486;2022-12-13T09:27:20;12.60;;;10.30;;
10403;SDS011;5248;47.374;8.486;2022-12-13T09:29:48;12.13;;;10.20;;
10403;SDS011;5248;47.374;8.486;2022-12-13T09:32:15;12.90;;;10.10;;
10403;SDS011;5248;47.374;8.486;2022-12-13T09:34:41;10.70;;;9.53;;
10403;SDS011;5248;47.374;8.486;2022-12-13T09:37:09;13.47;;;9.70;;
10403;SDS011;5248;47.374;8.486;2022-12-13T09:39:37;13.67;;;10.60;;
10403;SDS011;5248;47.374;8.486;2022-12-13T09:42:04;13.77;;;11.03;;
10403;SDS011;5248;47.374;8.486;2022-12-13T09:44:32;15.43;;;10.50;;
10403;SDS011;5248;47.374;8.486;2022-12-13T09:47:00;11.47;;;10.10;;
10403;SDS011;5248;47.374;8.486;2022-12-13T09:49:28;14.97;;;10.27;;
10403;SDS011;5248;47.374;8.486;2022-12-13T09:51:58;11.03;;;9.80;;
10403;SDS011;5248;47.374;8.486;2022-12-13T09:54:28;13.93;;;10.43;;
10403;SDS011;5248;47.374;8.486;2022-12-13T09:56:55;12.33;;;10.13;;
10403;SDS011;5248;47.374;8.486;2022-12-13T09:59:24;13.40;;;10.33;;
10403;SDS011;5248;47.374;8.486;2022-12-13T10:01:52;12.60;;;10.00;;
10403;SDS011;5248;47.374;8.486;2022-12-13T10:04:19;12.77;;;10.03;;
10403;SDS011;5248;47.374;8.486;2022-12-13T10:06:47;11.80;;;9.60;;
10403;SDS011;5248;47.374;8.486;2022-12-13T10:09:17;14.53;;;10.73;;
10403;SDS011;5248;47.374;8.486;2022-12-13T10:11:49;12.90;;;10.27;;
10403;SDS011;5248;47.374;8.486;2022-12-13T10:14:18;12.07;;;10.43;;
10403;SDS011;5248;47.374;8.486;2022-12-13T10:16:49;13.10;;;10.63;;
10403;SDS011;5248;47.374;8.486;2022-12-13T10:19:18;15.37;;;11.10;;
10403;SDS011;5248;47.374;8.486;2022-12-13T10:21:47;12.67;;;10.47;;
10403;SDS011;5248;47.374;8.486;2022-12-13T10:24:15;15.23;;;10.60;;
10403;SDS011;5248;47.374;8.486;2022-12-13T10:26:44;15.23;;;10.90;;
10403;SDS011;5248;47.374;8.486;2022-12-13T10:29:12;16.53;;;11.57;;
10403;SDS011;5248;47.374;8.486;2022-12-13T10:31:39;14.60;;;10.87;;
10403;SDS011;5248;47.374;8.486;2022-12-13T10:34:15;11.73;;;10.30;;
10403;SDS011;5248;47.374;8.486;2022-12-13T10:36:46;16.53;;;10.63;;
10403;SDS011;5248;47.374;8.486;2022-12-13T10:39:13;12.97;;;10.63;;
10403;SDS011;5248;47.374;8.486;2022-12-13T10:41:42;15.00;;;10.10;;
10403;SDS011;5248;47.374;8.486;2022-12-13T10:44:21;17.23;;;10.00;;
10403;SDS011;5248;47.374;8.486;2022-12-13T10:46:50;11.87;;;10.13;;
10403;SDS011;5248;47.374;8.486;2022-12-13T10:49:19;11.63;;;9.63;;
10403;SDS011;5248;47.374;8.486;2022-12-13T10:51:46;11.93;;;9.60;;
10403;SDS011;5248;47.374;8.486;2022-12-13T10:54:15;12.13;;;10.53;;
10403;SDS011;5248;47.374;8.486;2022-12-13T10:56:44;12.90;;;10.37;;
10403;SDS011;5248;47.374;8.486;2022-12-13T10:59:23;12.13;;;10.30;;
10403;SDS011;5248;47.374;8.486;2022-12-13T11:01:51;13.23;;;10.70;;
10403;SDS011;5248;47.374;8.486;2022-12-13T11:04:22;12.50;;;10.63;;
10403;SDS011;5248;47.374;8.486;2022-12-13T11:06:51;14.10;;;10.77;;
10403;SDS011;5248;47.374;8.486;2022-12-13T11:09:26;12.03;;;10.67;;
10403;SDS011;5248;47.374;8.486;2022-12-13T11:11:55;13.60;;;10.47;;
10403;SDS011;5248;47.374;8.486;2022-12-13T11:14:25;11.70;;;10.37;;
10403;SDS011;5248;47.374;8.486;2022-12-13T11:16:53;12.13;;;10.43;;
10403;SDS011;5248;47.374;8.486;2022-12-13T11:19:23;14.50;;;10.23;;
10403;SDS011;5248;47.374;8.486;2022-12-13T11:21:51;11.77;;;10.33;;
10403;SDS011;5248;47.374;8.486;2022-12-13T11:24:19;13.17;;;10.73;;
10403;SDS011;5248;47.374;8.486;2022-12-13T11:26:47;14.47;;;10.87;;
10403;SDS011;5248;47.374;8.486;2022-12-13T11:29:20;12.70;;;10.70;;
10403;SDS011;5248;47.374;8.486;2022-12-13T11:32:10;14.87;;;10.03;;
10403;SDS011;5248;47.374;8.486;2022-12-13T11:34:41;13.70;;;10.77;;
10403;SDS011;5248;47.374;8.486;2022-12-13T11:37:13;13.23;;;11.07;;
10403;SDS011;5248;47.374;8.486;2022-12-13T11:39:46;11.50;;;10.30;;
10403;SDS011;5248;47.374;8.486;2022-12-13T11:42:17;14.27;;;11.30;;
10403;SDS011;5248;47.374;8.486;2022-12-13T11:44:52;12.17;;;9.93;;
10403;SDS011;5248;47.374;8.486;2022-12-13T11:47:26;11.47;;;10.23;;
10403;SDS011;5248;47.374;8.486;2022-12-13T11:50:12;12.50;;;10.13;;
10403;SDS011;5248;47.374;8.486;2022-12-13T11:52:42;11.13;;;9.93;;
10403;SDS011;5248;47.374;8.486;2022-12-13T11:55:13;13.60;;;10.37;;
10403;SDS011;5248;47.374;8.486;2022-12-13T11:57:43;13.37;;;10.17;;
10403;SDS011;5248;47.374;8.486;2022-12-13T12:03:00;12.47;;;9.80;;
10403;SDS011;5248;47.374;8.486;2022-12-13T12:05:32;14.47;;;10.30;;
10403;SDS011;5248;47.374;8.486;2022-12-13T12:08:03;16.63;;;10.40;;
10403;SDS011;5248;47.374;8.486;2022-12-13T12:10:32;12.93;;;10.30;;
10403;SDS011;5248;47.374;8.486;2022-12-13T12:13:03;14.53;;;10.70;;
10403;SDS011;5248;47.374;8.486;2022-12-13T12:15:35;13.80;;;10.30;;
10403;SDS011;5248;47.374;8.486;2022-12-13T12:18:07;13.83;;;10.13;;
10403;SDS011;5248;47.374;8.486;2022-12-13T12:20:39;15.10;;;11.00;;
10403;SDS011;5248;47.374;8.486;2022-12-13T12:23:13;12.83;;;9.77;;
10403;SDS011;5248;47.374;8.486;2022-12-13T12:25:46;14.20;;;11.03;;
10403;SDS011;5248;47.374;8.486;2022-12-13T12:28:18;12.57;;;9.73;;
10403;SDS011;5248;47.374;8.486;2022-12-13T12:30:52;12.90;;;10.27;;
10403;SDS011;5248;47.374;8.486;2022-12-13T12:33:24;14.73;;;10.80;;
10403;SDS011;5248;47.374;8.486;2022-12-13T12:36:04;12.77;;;10.23;;
10403;SDS011;5248;47.374;8.486;2022-12-13T12:38:47;12.80;;;10.47;;
10403;SDS011;5248;47.374;8.486;2022-12-13T12:41:24;12.97;;;10.50;;
10403;SDS011;5248;47.374;8.486;2022-12-13T12:43:54;16.00;;;10.83;;
10403;SDS011;5248;47.374;8.486;2022-12-13T12:46:33;14.07;;;10.57;;
10403;SDS011;5248;47.374;8.486;2022-12-13T12:52:03;12.20;;;10.43;;
10403;SDS011;5248;47.374;8.486;2022-12-13T12:54:47;12.17;;;10.27;;
10403;SDS011;5248;47.374;8.486;2022-12-13T12:57:20;11.80;;;10.50;;
10403;SDS011;5248;47.374;8.486;2022-12-13T12:59:52;11.57;;;10.37;;
10403;SDS011;5248;47.374;8.486;2022-12-13T13:02:27;16.87;;;10.97;;
10403;SDS011;5248;47.374;8.486;2022-12-13T13:04:59;12.50;;;9.90;;
10403;SDS011;5248;47.374;8.486;2022-12-13T13:07:33;12.47;;;10.43;;
10403;SDS011;5248;47.374;8.486;2022-12-13T13:10:02;12.37;;;10.13;;
10403;SDS011;5248;47.374;8.486;2022-12-13T13:12:30;11.67;;;10.47;;
10403;SDS011;5248;47.374;8.486;2022-12-13T13:14:58;14.90;;;10.13;;
10403;SDS011;5248;47.374;8.486;2022-12-13T13:20:15;13.57;;;10.20;;
10403;SDS011;5248;47.374;8.486;2022-12-13T13:22:48;11.73;;;10.13;;
10403;SDS011;5248;47.374;8.486;2022-12-13T13:25:23;12.20;;;10.90;;
10403;SDS011;5248;47.374;8.486;2022-12-13T13:27:59;11.53;;;9.43;;
10403;SDS011;5248;47.374;8.486;2022-12-13T13:30:27;13.10;;;10.43;;
10403;SDS011;5248;47.374;8.486;2022-12-13T13:32:55;12.50;;;10.27;;
10403;SDS011;5248;47.374;8.486;2022-12-13T13:35:43;11.87;;;10.53;;
10403;SDS011;5248;47.374;8.486;2022-12-13T13:38:25;14.77;;;10.30;;
10403;SDS011;5248;47.374;8.486;2022-12-13T13:40:53;12.20;;;10.40;;
10403;SDS011;5248;47.374;8.486;2022-12-13T13:43:26;14.07;;;11.33;;
10403;SDS011;5248;47.374;8.486;2022-12-13T13:45:58;13.33;;;11.03;;
10403;SDS011;5248;47.374;8.486;2022-12-13T13:48:30;12.47;;;10.63;;
10403;SDS011;5248;47.374;8.486;2022-12-13T13:51:21;11.50;;;10.03;;
10403;SDS011;5248;47.374;8.486;2022-12-13T13:54:23;14.10;;;10.87;;
10403;SDS011;5248;47.374;8.486;2022-12-13T13:57:12;13.83;;;10.43;;
10403;SDS011;5248;47.374;8.486;2022-12-13T14:03:02;15.77;;;11.37;;
10403;SDS011;5248;47.374;8.486;2022-12-13T14:06:11;14.10;;;10.83;;
10403;SDS011;5248;47.374;8.486;2022-12-13T14:12:18;12.73;;;10.37;;
10403;SDS011;5248;47.374;8.486;2022-12-13T14:15:22;13.93;;;10.40;;
10403;SDS011;5248;47.374;8.486;2022-12-13T14:18:26;13.03;;;10.37;;
10403;SDS011;5248;47.374;8.486;2022-12-13T14:21:28;11.07;;;9.80;;
10403;SDS011;5248;47.374;8.486;2022-12-13T14:24:03;12.97;;;10.47;;
10403;SDS011;5248;47.374;8.486;2022-12-13T14:26:41;11.43;;;10.10;;
10403;SDS011;5248;47.374;8.486;2022-12-13T14:29:13;14.47;;;10.53;;
10403;SDS011;5248;47.374;8.486;2022-12-13T14:31:41;13.37;;;10.23;;
10403;SDS011;5248;47.374;8.486;2022-12-13T14:34:15;13.80;;;10.30;;
10403;SDS011;5248;47.374;8.486;2022-12-13T14:36:48;16.43;;;10.73;;
10403;SDS011;5248;47.374;8.486;2022-12-13T14:39:20;13.93;;;10.20;;
10403;SDS011;5248;47.374;8.486;2022-12-13T14:41:48;10.87;;;9.77;;
10403;SDS011;5248;47.374;8.486;2022-12-13T14:44:15;13.93;;;10.53;;
10403;SDS011;5248;47.374;8.486;2022-12-13T14:46:47;12.50;;;10.40;;
10403;SDS011;5248;47.374;8.486;2022-12-13T14:49:15;12.67;;;10.33;;
10403;SDS011;5248;47.374;8.486;2022-12-13T14:51:42;12.77;;;10.73;;
10403;SDS011;5248;47.374;8.486;2022-12-13T14:54:16;12.40;;;10.70;;
10403;SDS011;5248;47.374;8.486;2022-12-13T14:56:54;11.80;;;9.80;;
10403;SDS011;5248;47.374;8.486;2022-12-13T14:59:22;15.67;;;10.20;;
10403;SDS011;5248;47.374;8.486;2022-12-13T15:01:52;12.60;;;10.60;;
10403;SDS011;5248;47.374;8.486;2022-12-13T15:04:25;15.43;;;11.13;;
10403;SDS011;5248;47.374;8.486;2022-12-13T15:06:54;13.20;;;10.97;;
10403;SDS011;5248;47.374;8.486;2022-12-13T15:09:25;11.63;;;10.37;;
10403;SDS011;5248;47.374;8.486;2022-12-13T15:11:52;13.47;;;11.33;;
10403;SDS011;5248;47.374;8.486;2022-12-13T15:14:19;12.87;;;11.30;;